createdAt,value
2018-12-16T00:01:31.978Z,32.33
2018-12-16T00:04:00.909Z,32.28
2018-12-16T00:06:41.934Z,32.78
2018-12-16T00:09:11.245Z,30.80
2018-12-16T00:11:52.273Z,28.83
2018-12-16T00:14:21.184Z,29.37
2018-12-16T00:17:02.674Z,27.62
2018-12-16T00:22:11.654Z,25.92
2018-12-16T00:27:21.070Z,25.08
2018-12-16T00:29:51.846Z,30.20
2018-12-16T00:32:32.970Z,27.40
2018-12-16T00:35:01.863Z,25.65
2018-12-16T00:37:42.874Z,24.72
2018-12-16T00:40:13.289Z,24.72
2018-12-16T00:42:54.787Z,25.65
2018-12-16T00:45:23.718Z,25.92
2018-12-16T00:48:04.753Z,25.70
2018-12-16T00:50:33.625Z,24.18
2018-12-16T00:53:14.761Z,21.10
2018-12-16T00:55:43.729Z,25.20
2018-12-16T00:58:24.740Z,24.30
2018-12-16T01:00:53.664Z,25.97
2018-12-16T01:03:34.886Z,27.87
2018-12-16T01:06:03.882Z,24.47
2018-12-16T01:08:44.889Z,23.50
2018-12-16T01:11:14.046Z,22.90
2018-12-16T01:13:55.211Z,22.48
2018-12-16T01:16:24.093Z,24.12
2018-12-16T01:19:05.254Z,23.98
2018-12-16T01:21:34.125Z,23.20
2018-12-16T01:24:15.149Z,25.30
2018-12-16T01:26:45.892Z,22.17
2018-12-16T01:29:27.029Z,22.02
2018-12-16T01:31:56.149Z,23.98
2018-12-16T01:34:37.668Z,21.52
2018-12-16T01:37:07.323Z,21.10
2018-12-16T01:39:48.365Z,20.80
2018-12-16T01:42:19.124Z,22.70
2018-12-16T01:45:00.398Z,22.52
2018-12-16T01:47:29.279Z,22.07
2018-12-16T01:50:10.558Z,21.73
2018-12-16T01:52:39.474Z,20.45
2018-12-16T01:55:20.636Z,20.88
2018-12-16T01:57:49.490Z,21.40
2018-12-16T02:00:32.069Z,20.92
2018-12-16T02:03:00.931Z,20.50
2018-12-16T02:05:42.006Z,19.35
2018-12-16T02:08:10.966Z,21.55
2018-12-16T02:10:51.966Z,23.07
2018-12-16T02:13:20.853Z,20.48
2018-12-16T02:16:01.864Z,20.90
2018-12-16T02:18:30.718Z,21.37
2018-12-16T02:21:11.710Z,19.20
2018-12-16T02:23:42.462Z,21.45
2018-12-16T02:26:23.481Z,19.05
2018-12-16T02:28:52.349Z,21.93
2018-12-16T02:31:33.362Z,20.60
2018-12-16T02:34:02.745Z,20.57
2018-12-16T02:36:43.758Z,18.35
2018-12-16T02:39:12.609Z,20.10
2018-12-16T02:41:53.679Z,18.57
2018-12-16T02:44:22.849Z,19.40
2018-12-16T02:47:03.873Z,18.82
2018-12-16T02:49:32.733Z,18.95
2018-12-16T02:52:13.740Z,19.87
2018-12-16T02:54:42.588Z,18.12
2018-12-16T02:57:23.655Z,20.27
2018-12-16T02:59:52.503Z,23.38
2018-12-16T03:02:33.666Z,19.90
2018-12-16T03:05:03.606Z,23.18
2018-12-16T03:07:44.610Z,19.57
2018-12-16T03:10:13.745Z,19.10
2018-12-16T03:12:54.759Z,19.42
2018-12-16T03:15:23.620Z,18.73
2018-12-16T03:18:04.683Z,20.05
2018-12-16T03:20:33.541Z,18.12
2018-12-16T03:23:14.578Z,18.48
2018-12-16T03:25:43.931Z,17.82
2018-12-16T03:28:24.939Z,18.50
2018-12-16T03:30:53.888Z,18.75
2018-12-16T03:33:35.045Z,17.85
2018-12-16T03:36:03.907Z,18.70
2018-12-16T03:38:44.890Z,18.25
2018-12-16T03:41:13.753Z,17.25
2018-12-16T03:43:54.812Z,17.42
2018-12-16T03:46:23.768Z,16.40
2018-12-16T03:49:04.802Z,16.67
2018-12-16T03:51:34.569Z,17.55
2018-12-16T03:54:15.662Z,16.25
2018-12-16T03:56:44.539Z,15.10
2018-12-16T03:59:28.163Z,16.30
2018-12-16T04:01:58.016Z,18.23
2018-12-16T04:04:39.076Z,16.20
2018-12-16T04:07:08.134Z,17.30
2018-12-16T04:09:49.154Z,18.15
2018-12-16T04:12:18.211Z,17.77
2018-12-16T04:14:59.326Z,17.82
2018-12-16T04:17:28.296Z,17.32
2018-12-16T04:20:09.553Z,16.35
2018-12-16T04:22:38.415Z,16.00
2018-12-16T04:25:21.155Z,18.07
2018-12-16T04:27:50.179Z,16.75
2018-12-16T04:30:31.271Z,16.25
2018-12-16T04:33:00.225Z,15.35
2018-12-16T04:35:41.342Z,15.00
2018-12-16T04:38:10.304Z,15.58
2018-12-16T04:40:51.369Z,16.07
2018-12-16T04:43:20.406Z,15.30
2018-12-16T04:46:01.422Z,16.37
2018-12-16T04:48:42.545Z,17.05
2018-12-16T04:51:11.403Z,16.75
2018-12-16T04:53:52.494Z,16.42
2018-12-16T04:56:21.359Z,16.62
2018-12-16T04:59:02.351Z,15.00
2018-12-16T05:01:31.311Z,15.80
2018-12-16T05:04:12.340Z,16.10
2018-12-16T05:06:41.254Z,15.70
2018-12-16T05:09:22.390Z,16.30
2018-12-16T05:11:52.969Z,15.10
2018-12-16T05:14:34.546Z,14.83
2018-12-16T05:17:03.507Z,17.10
2018-12-16T05:19:44.473Z,16.42
2018-12-16T05:22:13.354Z,18.45
2018-12-16T05:24:54.445Z,17.00
2018-12-16T05:27:23.293Z,16.27
2018-12-16T05:30:04.826Z,16.62
2018-12-16T05:32:35.597Z,16.20
2018-12-16T05:35:16.642Z,16.65
2018-12-16T05:37:45.697Z,18.15
2018-12-16T05:40:26.694Z,16.95
2018-12-16T05:42:57.449Z,17.57
2018-12-16T05:45:38.533Z,16.27
2018-12-16T05:48:07.393Z,15.88
2018-12-16T05:50:48.360Z,18.60
2018-12-16T05:53:17.257Z,18.60
2018-12-16T05:55:58.244Z,16.37
2018-12-16T05:58:27.101Z,20.30
2018-12-16T06:01:08.088Z,18.27
2018-12-16T06:03:36.940Z,17.05
2018-12-16T06:06:17.916Z,17.95
2018-12-16T06:08:46.907Z,19.15
2018-12-16T06:11:27.893Z,15.15
2018-12-16T06:13:56.750Z,18.30
2018-12-16T06:16:37.744Z,19.77
2018-12-16T06:19:06.624Z,19.30
2018-12-16T06:21:47.627Z,19.98
2018-12-16T06:24:16.501Z,19.60
2018-12-16T06:26:57.461Z,18.20
2018-12-16T06:29:26.401Z,16.65
2018-12-16T06:32:08.473Z,20.10
2018-12-16T06:34:37.438Z,17.75
2018-12-16T06:37:18.438Z,16.60
2018-12-16T06:39:47.321Z,20.60
2018-12-16T06:42:28.328Z,22.17
2018-12-16T06:44:57.274Z,20.12
2018-12-16T06:47:38.254Z,20.08
2018-12-16T06:50:07.687Z,20.32
2018-12-16T06:52:48.799Z,22.67
2018-12-16T06:55:17.918Z,21.42
2018-12-16T06:57:59.018Z,23.00
2018-12-16T07:00:28.527Z,21.52
2018-12-16T07:03:09.531Z,23.32
2018-12-16T07:05:38.494Z,22.93
2018-12-16T07:08:19.510Z,24.02
2018-12-16T07:10:48.456Z,23.12
2018-12-16T07:13:29.529Z,23.83
2018-12-16T07:15:59.294Z,23.75
2018-12-16T07:18:40.315Z,23.65
2018-12-16T07:21:09.177Z,24.10
2018-12-16T07:23:50.259Z,25.25
2018-12-16T07:26:19.139Z,22.55
2018-12-16T07:29:00.168Z,23.65
2018-12-16T07:31:30.161Z,21.33
2018-12-16T07:34:11.433Z,23.47
2018-12-16T07:36:40.577Z,21.25
2018-12-16T07:39:21.662Z,21.35
2018-12-16T07:41:50.589Z,21.65
2018-12-16T07:44:31.653Z,19.30
2018-12-16T07:47:00.544Z,19.42
2018-12-16T07:49:41.557Z,21.15
2018-12-16T07:52:10.546Z,21.48
2018-12-16T07:54:51.632Z,23.75
2018-12-16T07:57:21.998Z,21.23
2018-12-16T08:00:04.352Z,22.40
2018-12-16T08:02:34.238Z,22.70
2018-12-16T08:05:15.320Z,20.17
2018-12-16T08:07:44.201Z,24.20
2018-12-16T08:10:25.180Z,22.82
2018-12-16T08:12:55.754Z,22.37
2018-12-16T08:15:36.786Z,23.60
2018-12-16T08:18:05.641Z,21.05
2018-12-16T08:20:46.657Z,22.10
2018-12-16T08:23:15.513Z,22.22
2018-12-16T08:25:56.534Z,19.90
2018-12-16T08:28:25.926Z,21.00
2018-12-16T08:31:07.506Z,21.37
2018-12-16T08:33:36.505Z,26.75
2018-12-16T08:36:17.672Z,22.22
2018-12-16T08:38:46.589Z,22.87
2018-12-16T08:41:27.607Z,27.82
2018-12-16T08:43:56.486Z,28.50
2018-12-16T08:46:37.506Z,27.62
2018-12-16T08:49:06.374Z,24.02
2018-12-16T08:51:47.390Z,22.15
2018-12-16T08:54:16.654Z,18.80
2018-12-16T08:56:57.962Z,19.62
2018-12-16T08:59:28.500Z,22.37
2018-12-16T09:02:09.775Z,17.40
2018-12-16T09:04:38.882Z,21.15
2018-12-16T09:07:19.881Z,20.02
2018-12-16T09:10:01.692Z,19.35
2018-12-16T09:15:14.878Z,20.60
2018-12-16T09:17:43.941Z,19.80
2018-12-16T09:20:25.022Z,21.93
2018-12-16T09:22:53.857Z,20.70
2018-12-16T09:25:35.022Z,22.75
2018-12-16T09:28:03.862Z,21.82
2018-12-16T09:30:44.862Z,23.20
2018-12-16T09:33:13.705Z,24.20
2018-12-16T09:35:55.180Z,26.90
2018-12-16T09:38:24.749Z,22.50
2018-12-16T09:41:06.394Z,23.22
2018-12-16T09:43:35.748Z,23.73
2018-12-16T09:46:17.201Z,22.22
2018-12-16T09:48:48.157Z,20.05
2018-12-16T09:51:29.262Z,21.90
2018-12-16T09:53:59.074Z,25.12
2018-12-16T09:56:40.141Z,26.10
2018-12-16T09:59:10.932Z,25.00
2018-12-16T10:01:54.733Z,23.67
2018-12-16T10:04:23.583Z,24.92
2018-12-16T10:07:04.785Z,22.05
2018-12-16T10:09:33.737Z,22.02
2018-12-16T10:12:15.366Z,23.75
2018-12-16T10:14:44.302Z,23.80
2018-12-16T10:17:25.343Z,23.98
2018-12-16T10:19:54.229Z,23.50
2018-12-16T10:22:35.264Z,23.20
2018-12-16T10:25:06.041Z,21.85
2018-12-16T10:27:47.084Z,22.82
2018-12-16T10:30:16.847Z,22.87
2018-12-16T10:32:57.942Z,22.87
2018-12-16T10:35:26.897Z,24.35
2018-12-16T10:38:08.218Z,21.55
2018-12-16T10:40:37.826Z,23.00
2018-12-16T10:43:18.914Z,20.97
2018-12-16T10:45:47.784Z,20.85
2018-12-16T10:48:28.805Z,23.42
2018-12-16T10:50:57.833Z,23.50
2018-12-16T10:53:38.825Z,24.10
2018-12-16T10:56:07.691Z,21.52
2018-12-16T10:58:48.693Z,20.60
2018-12-16T11:01:23.234Z,21.95
2018-12-16T11:04:04.481Z,20.15
2018-12-16T11:06:35.262Z,19.12
2018-12-16T11:09:16.256Z,19.92
2018-12-16T11:11:45.117Z,20.00
2018-12-16T11:14:26.130Z,18.52
2018-12-16T11:16:54.984Z,21.68
2018-12-16T11:19:24.369Z,21.05
2018-12-16T11:22:05.398Z,20.12
2018-12-16T11:24:34.272Z,21.00
2018-12-16T11:27:15.277Z,19.30
2018-12-16T11:29:44.230Z,19.75
2018-12-16T11:32:25.233Z,20.97
2018-12-16T11:34:54.407Z,20.57
2018-12-16T11:37:35.437Z,20.05
2018-12-16T11:40:05.437Z,21.80
2018-12-16T11:42:46.462Z,20.68
2018-12-16T11:45:15.385Z,22.02
2018-12-16T11:47:56.398Z,21.45
2018-12-16T11:50:27.126Z,22.93
2018-12-16T11:53:08.110Z,21.80
2018-12-16T11:55:37.326Z,21.02
2018-12-16T11:58:24.969Z,22.77
2018-12-16T12:00:53.842Z,23.12
2018-12-16T12:03:35.314Z,23.22
2018-12-16T12:06:04.329Z,23.70
2018-12-16T12:08:45.363Z,22.37
2018-12-16T12:11:14.407Z,21.82
2018-12-16T12:13:55.681Z,22.37
2018-12-16T12:16:24.630Z,23.70
2018-12-16T12:19:05.672Z,24.18
2018-12-16T12:21:34.542Z,24.50
2018-12-16T12:24:15.667Z,22.80
2018-12-16T12:26:44.533Z,23.02
2018-12-16T12:29:25.637Z,22.95
2018-12-16T12:31:54.958Z,23.60
2018-12-16T12:34:36.001Z,24.92
2018-12-16T12:37:05.373Z,23.95
2018-12-16T12:39:46.374Z,23.95
2018-12-16T12:42:15.340Z,25.75
2018-12-16T12:44:56.388Z,24.25
2018-12-16T12:47:25.435Z,23.10
2018-12-16T12:50:08.051Z,24.87
2018-12-16T12:52:36.940Z,23.50
2018-12-16T12:55:18.046Z,24.18
2018-12-16T12:57:46.944Z,23.75
2018-12-16T13:00:29.842Z,23.90
2018-12-16T13:02:59.710Z,27.00
2018-12-16T13:05:40.859Z,23.47
2018-12-16T13:08:09.735Z,22.90
2018-12-16T13:10:50.803Z,24.72
2018-12-16T13:13:19.732Z,22.80
2018-12-16T13:16:00.785Z,24.90
2018-12-16T13:18:29.693Z,25.48
2018-12-16T13:21:10.729Z,23.80
2018-12-16T13:23:39.886Z,23.60
2018-12-16T13:26:21.052Z,21.77
2018-12-16T13:28:49.933Z,22.85
2018-12-16T13:31:31.194Z,25.08
2018-12-16T13:34:01.208Z,24.20
2018-12-16T13:36:42.321Z,23.07
2018-12-16T13:39:11.192Z,24.18
2018-12-16T13:41:52.679Z,24.40
2018-12-16T13:44:21.910Z,24.12
2018-12-16T13:47:02.995Z,23.35
2018-12-16T13:49:31.869Z,26.50
2018-12-16T13:52:12.870Z,23.07
2018-12-16T13:54:41.825Z,23.45
2018-12-16T13:57:22.892Z,23.92
2018-12-16T13:59:51.788Z,25.68
2018-12-16T14:02:32.964Z,25.23
2018-12-16T14:05:02.026Z,26.02
2018-12-16T14:07:43.082Z,23.60
2018-12-16T14:10:11.975Z,24.40
2018-12-16T14:12:52.993Z,26.17
2018-12-16T14:15:21.827Z,26.15
2018-12-16T14:18:02.846Z,28.38
2018-12-16T14:20:31.762Z,25.50
2018-12-16T14:23:12.786Z,25.52
2018-12-16T14:25:47.819Z,27.30
2018-12-16T14:28:24.926Z,24.95
2018-12-16T14:30:53.901Z,25.62
2018-12-16T14:33:34.937Z,25.60
2018-12-16T14:36:04.687Z,24.85
2018-12-16T14:38:45.878Z,26.23
2018-12-16T14:41:14.744Z,24.67
2018-12-16T14:43:55.853Z,25.10
2018-12-16T14:46:24.723Z,23.30
2018-12-16T14:49:05.744Z,26.35
2018-12-16T14:51:34.746Z,23.65
2018-12-16T14:54:15.866Z,24.40
2018-12-16T14:56:44.824Z,24.55
2018-12-16T14:59:28.429Z,24.87
2018-12-16T15:01:57.277Z,27.93
2018-12-16T15:04:38.369Z,24.70
2018-12-16T15:07:07.280Z,24.27
2018-12-16T15:09:48.287Z,25.27
2018-12-16T15:12:17.149Z,22.67
2018-12-16T15:14:58.454Z,24.15
2018-12-16T15:17:27.613Z,23.70
2018-12-16T15:20:08.995Z,25.45
2018-12-16T15:22:39.746Z,24.27
2018-12-16T15:25:21.549Z,25.10
2018-12-16T15:27:50.467Z,23.65
2018-12-16T15:30:31.544Z,25.15
2018-12-16T15:33:00.385Z,27.45
2018-12-16T15:35:41.466Z,25.32
2018-12-16T15:38:10.313Z,25.50
2018-12-16T15:40:51.330Z,25.80
2018-12-16T15:43:20.173Z,24.43
2018-12-16T15:46:01.291Z,26.10
2018-12-16T15:48:30.141Z,24.15
2018-12-16T15:51:11.142Z,24.55
2018-12-16T15:53:40.125Z,25.17
2018-12-16T15:56:21.736Z,25.77
2018-12-16T15:58:50.700Z,27.10
2018-12-16T16:01:31.765Z,24.85
2018-12-16T16:04:00.737Z,27.67
2018-12-16T16:06:41.739Z,24.65
2018-12-16T16:09:10.598Z,25.48
2018-12-16T16:11:51.626Z,29.12
2018-12-16T16:14:20.579Z,25.92
2018-12-16T16:17:01.574Z,26.57
2018-12-16T16:19:32.386Z,24.43
2018-12-16T16:22:13.458Z,26.20
2018-12-16T16:24:42.327Z,23.15
2018-12-16T16:27:23.451Z,25.17
2018-12-16T16:29:52.317Z,25.80
2018-12-16T16:32:33.353Z,25.80
2018-12-16T16:35:02.354Z,26.50
2018-12-16T16:37:43.828Z,29.45
2018-12-16T16:40:13.259Z,31.07
2018-12-16T16:42:54.383Z,31.07
2018-12-16T16:45:23.245Z,33.70
2018-12-16T16:48:04.290Z,29.85
2018-12-16T16:50:33.335Z,32.03
2018-12-16T16:53:14.401Z,32.42
2018-12-16T16:55:43.452Z,33.95
2018-12-16T16:58:24.869Z,32.65
2018-12-16T17:00:53.718Z,34.25
2018-12-16T17:03:35.074Z,33.90
2018-12-16T17:06:03.978Z,33.80
2018-12-16T17:08:44.983Z,33.50
2018-12-16T17:11:14.894Z,35.05
2018-12-16T17:13:58.518Z,30.55
2018-12-16T17:16:27.718Z,31.15
2018-12-16T17:19:09.108Z,35.50
2018-12-16T17:21:39.501Z,32.25
2018-12-16T17:24:20.752Z,34.40
2018-12-16T17:26:49.718Z,36.40
2018-12-16T17:29:30.809Z,38.75
2018-12-16T17:31:59.650Z,36.05
2018-12-16T17:34:40.752Z,34.40
2018-12-16T17:37:09.664Z,38.75
2018-12-16T17:39:50.709Z,37.83
2018-12-16T17:42:19.597Z,40.35
2018-12-16T17:45:00.692Z,39.38
2018-12-16T17:47:30.173Z,41.88
2018-12-16T17:50:11.332Z,43.48
2018-12-16T17:52:40.299Z,42.58
2018-12-16T17:55:21.343Z,46.73
2018-12-16T17:57:52.168Z,49.35
2018-12-16T18:00:33.326Z,53.55
2018-12-16T18:03:02.225Z,50.00
2018-12-16T18:05:43.262Z,51.25
2018-12-16T18:08:12.127Z,49.30
2018-12-16T18:10:53.210Z,45.92
2018-12-16T18:13:22.078Z,44.60
2018-12-16T18:16:03.601Z,45.38
2018-12-16T18:18:32.716Z,48.58
2018-12-16T18:21:13.863Z,49.40
2018-12-16T18:23:42.949Z,51.45
2018-12-16T18:26:24.446Z,49.30
2018-12-16T18:28:53.758Z,48.63
2018-12-16T18:31:35.104Z,49.63
2018-12-16T18:34:04.066Z,49.67
2018-12-16T18:36:45.097Z,46.55
2018-12-16T18:39:14.338Z,44.80
2018-12-16T18:41:56.090Z,43.17
2018-12-16T18:44:25.032Z,44.60
2018-12-16T18:47:06.181Z,46.40
2018-12-16T18:49:35.198Z,47.35
2018-12-16T18:52:16.221Z,48.55
2018-12-16T18:54:45.389Z,47.65
2018-12-16T18:57:26.429Z,52.43
2018-12-16T18:59:55.403Z,51.77
2018-12-16T19:02:39.617Z,55.40
2018-12-16T19:05:08.869Z,51.20
2018-12-16T19:07:49.935Z,48.40
2018-12-16T19:10:18.918Z,48.10
2018-12-16T19:12:59.933Z,42.03
2018-12-16T19:15:28.844Z,42.70
2018-12-16T19:18:10.198Z,43.08
2018-12-16T19:20:39.240Z,37.80
2018-12-16T19:23:20.699Z,42.15
2018-12-16T19:25:49.626Z,42.83
2018-12-16T19:28:30.706Z,39.27
2018-12-16T19:30:59.573Z,40.38
2018-12-16T19:33:40.605Z,38.38
2018-12-16T19:36:09.484Z,43.17
2018-12-16T19:38:50.874Z,41.18
2018-12-16T19:41:21.147Z,38.98
2018-12-16T19:44:02.221Z,38.67
2018-12-16T19:46:31.235Z,38.58
2018-12-16T19:49:12.245Z,40.00
2018-12-16T19:51:41.205Z,39.15
2018-12-16T19:54:22.864Z,36.50
2018-12-16T19:56:52.018Z,36.05
2018-12-16T19:59:33.064Z,35.73
2018-12-16T20:02:01.971Z,38.85
2018-12-16T20:04:47.449Z,35.08
2018-12-16T20:07:16.927Z,36.85
2018-12-16T20:09:57.988Z,38.83
2018-12-16T20:12:26.974Z,39.80
2018-12-16T20:15:08.325Z,36.85
2018-12-16T20:17:37.584Z,37.15
2018-12-16T20:20:19.031Z,42.10
2018-12-16T20:22:48.240Z,41.40
2018-12-16T20:25:29.287Z,41.08
2018-12-16T20:27:58.266Z,39.67
2018-12-16T20:30:39.285Z,41.98
2018-12-16T20:33:08.130Z,43.48
2018-12-16T20:35:49.238Z,37.50
2018-12-16T20:38:18.470Z,40.00
2018-12-16T20:40:59.671Z,42.55
2018-12-16T20:43:28.557Z,39.00
2018-12-16T20:46:09.613Z,38.58
2018-12-16T20:48:38.482Z,36.33
2018-12-16T20:51:19.536Z,36.55
2018-12-16T20:53:48.995Z,33.95
2018-12-16T20:56:30.145Z,38.30
2018-12-16T20:58:58.995Z,37.28
2018-12-16T21:01:40.153Z,36.03
2018-12-16T21:04:09.134Z,34.05
2018-12-16T21:06:50.317Z,37.08
2018-12-16T21:09:19.317Z,36.20
2018-12-16T21:12:00.535Z,35.75
2018-12-16T21:14:35.652Z,37.55
2018-12-16T21:17:28.395Z,35.78
2018-12-16T21:19:57.980Z,34.75
2018-12-16T21:22:39.114Z,37.73
2018-12-16T21:25:08.465Z,39.53
2018-12-16T21:27:49.520Z,39.98
2018-12-16T21:30:19.917Z,41.65
2018-12-16T21:33:00.937Z,42.98
2018-12-16T21:35:29.950Z,44.70
2018-12-16T21:38:11.066Z,41.55
2018-12-16T21:40:39.949Z,42.10
2018-12-16T21:43:21.017Z,41.45
2018-12-16T21:45:50.478Z,42.35
2018-12-16T21:48:31.501Z,40.90
2018-12-16T21:51:00.458Z,42.10
2018-12-16T21:53:41.466Z,42.48
2018-12-16T21:56:10.731Z,42.65
2018-12-16T21:58:51.829Z,41.68
2018-12-16T22:01:20.703Z,40.00
2018-12-16T22:04:01.717Z,42.78
2018-12-16T22:06:30.641Z,43.35
2018-12-16T22:09:11.908Z,44.40
2018-12-16T22:11:40.958Z,43.92
2018-12-16T22:14:22.058Z,42.35
2018-12-16T22:16:50.894Z,40.83
2018-12-16T22:19:31.896Z,42.43
2018-12-16T22:22:00.861Z,38.85
2018-12-16T22:24:45.184Z,36.35
2018-12-16T22:27:14.035Z,37.55
2018-12-16T22:29:55.037Z,39.75
2018-12-16T22:32:24.286Z,39.27
2018-12-16T22:35:05.586Z,42.73
2018-12-16T22:37:34.601Z,42.73
2018-12-16T22:40:15.764Z,38.15
2018-12-16T22:42:46.527Z,39.38
2018-12-16T22:45:27.617Z,36.90
2018-12-16T22:47:56.574Z,37.48
2018-12-16T22:50:37.569Z,36.00
2018-12-16T22:53:06.457Z,37.60
2018-12-16T22:55:47.557Z,38.00
2018-12-16T22:58:16.414Z,38.28
2018-12-16T23:01:03.261Z,40.73
2018-12-16T23:03:32.105Z,37.45
2018-12-16T23:06:13.134Z,38.60
2018-12-16T23:08:41.990Z,36.05
2018-12-16T23:11:23.022Z,36.70
2018-12-16T23:13:51.970Z,38.35
2018-12-16T23:16:33.025Z,37.58
2018-12-16T23:19:01.897Z,35.90
2018-12-16T23:21:42.894Z,38.30
2018-12-16T23:24:11.866Z,37.45
2018-12-16T23:26:53.565Z,39.85
2018-12-16T23:29:22.426Z,37.95
2018-12-16T23:32:03.465Z,39.48
2018-12-16T23:34:32.764Z,36.98
2018-12-16T23:37:13.852Z,36.95
2018-12-16T23:39:42.686Z,35.52
2018-12-16T23:42:23.719Z,38.38
2018-12-16T23:44:52.589Z,37.13
2018-12-16T23:47:33.613Z,40.28
2018-12-16T23:50:02.507Z,35.45
2018-12-16T23:52:43.574Z,33.75
2018-12-16T23:55:12.458Z,36.50
2018-12-16T23:57:53.479Z,34.20
